createdAt,value
2022-10-07T00:01:37.019Z,1018.21
2022-10-07T00:06:41.095Z,1018.26
2022-10-07T00:11:45.237Z,1018.19
2022-10-07T00:16:49.512Z,1018.13
2022-10-07T00:21:53.573Z,1018.07
2022-10-07T00:26:57.712Z,1018.04
2022-10-07T00:32:01.867Z,1018.01
2022-10-07T00:37:06.087Z,1017.96
2022-10-07T00:42:10.246Z,1017.88
2022-10-07T00:47:14.382Z,1017.84
2022-10-07T00:52:18.532Z,1017.86
2022-10-07T00:57:22.716Z,1017.73
2022-10-07T01:02:26.966Z,1017.62
2022-10-07T01:07:31.016Z,1017.62
2022-10-07T01:12:35.181Z,1017.57
2022-10-07T01:17:39.351Z,1017.59
2022-10-07T01:22:43.519Z,1017.51
2022-10-07T01:27:47.682Z,1017.41
2022-10-07T01:32:49.968Z,1017.41
2022-10-07T01:37:54.128Z,1017.36
2022-10-07T01:42:56.389Z,1017.25
2022-10-07T01:48:00.588Z,1017.12
2022-10-07T01:53:04.719Z,1017.15
2022-10-07T01:58:08.921Z,1017.08
2022-10-07T02:03:13.235Z,1017.02
2022-10-07T02:08:17.197Z,1016.93
2022-10-07T02:13:21.348Z,1016.82
2022-10-07T02:18:25.564Z,1016.84
2022-10-07T02:23:29.708Z,1016.81
2022-10-07T02:28:33.987Z,1016.72
2022-10-07T02:33:38.044Z,1016.70
2022-10-07T02:38:42.207Z,1016.65
2022-10-07T02:43:46.338Z,1016.60
2022-10-07T02:48:50.504Z,1016.52
2022-10-07T02:53:54.662Z,1016.56
2022-10-07T02:58:58.829Z,1016.53
2022-10-07T03:04:03.048Z,1016.38
2022-10-07T03:09:07.143Z,1016.39
2022-10-07T03:14:11.354Z,1016.29
2022-10-07T03:19:15.523Z,1016.20
2022-10-07T03:24:19.646Z,1016.14
2022-10-07T03:29:21.966Z,1016.28
2022-10-07T03:34:26.079Z,1016.17
2022-10-07T03:39:30.270Z,1016.13
2022-10-07T03:44:34.404Z,1016.07
2022-10-07T03:49:38.559Z,1016.14
2022-10-07T03:54:42.749Z,1016.12
2022-10-07T03:59:46.927Z,1016.13
2022-10-07T04:04:51.064Z,1016.07
2022-10-07T04:09:55.221Z,1016.08
2022-10-07T04:14:59.375Z,1015.99
2022-10-07T04:20:03.562Z,1015.96
2022-10-07T04:25:07.740Z,1015.84
2022-10-07T04:30:11.885Z,1015.86
2022-10-07T04:35:16.017Z,1015.91
2022-10-07T04:40:20.231Z,1015.89
2022-10-07T04:45:24.361Z,1015.93
2022-10-07T04:50:28.535Z,1015.90
2022-10-07T04:55:32.704Z,1015.77
2022-10-07T05:00:36.912Z,1015.82
2022-10-07T05:05:41.002Z,1015.76
2022-10-07T05:10:45.191Z,1015.66
2022-10-07T05:15:47.457Z,1015.54
2022-10-07T05:20:51.661Z,1015.53
2022-10-07T05:25:53.903Z,1015.56
2022-10-07T05:30:58.088Z,1015.49
2022-10-07T05:36:02.209Z,1015.47
2022-10-07T05:41:06.399Z,1015.56
2022-10-07T05:46:10.646Z,1015.47
2022-10-07T05:51:14.723Z,1015.41
2022-10-07T05:56:18.894Z,1015.35
2022-10-07T06:01:23.087Z,1015.32
2022-10-07T06:06:27.289Z,1015.18
2022-10-07T06:11:31.375Z,1015.22
2022-10-07T06:21:39.691Z,1015.24
2022-10-07T06:26:43.995Z,1015.25
2022-10-07T06:31:48.033Z,1015.14
2022-10-07T06:36:52.203Z,1015.13
2022-10-07T06:41:56.328Z,1015.11
2022-10-07T06:47:00.545Z,1015.13
2022-10-07T06:52:04.706Z,1015.14
2022-10-07T06:57:26.719Z,1015.13
2022-10-07T07:02:13.062Z,1015.09
2022-10-07T07:07:17.178Z,1015.09
2022-10-07T07:12:21.329Z,1015.10
2022-10-07T07:17:23.586Z,1015.08
2022-10-07T07:22:27.756Z,1015.10
2022-10-07T07:27:30.071Z,1015.11
2022-10-07T07:32:34.164Z,1015.06
2022-10-07T07:37:38.363Z,1015.04
2022-10-07T07:42:42.568Z,1014.94
2022-10-07T07:47:47.023Z,1014.84
2022-10-07T07:52:55.224Z,1014.84
2022-10-07T07:57:53.128Z,1014.81
2022-10-07T08:02:57.330Z,1014.78
2022-10-07T08:08:01.452Z,1014.74
2022-10-07T08:13:05.639Z,1014.74
2022-10-07T08:18:09.783Z,1014.68
2022-10-07T08:23:13.929Z,1014.84
2022-10-07T08:28:18.114Z,1014.77
2022-10-07T08:33:22.229Z,1014.77
2022-10-07T08:43:30.568Z,1014.84
2022-10-07T08:48:34.697Z,1014.73
2022-10-07T08:53:38.886Z,1014.67
2022-10-07T08:58:43.063Z,1014.67
2022-10-07T09:03:47.222Z,1014.56
2022-10-07T09:08:51.355Z,1014.59
2022-10-07T09:13:55.590Z,1014.56
2022-10-07T09:18:57.803Z,1014.51
2022-10-07T09:24:01.975Z,1014.49
2022-10-07T09:29:06.127Z,1014.40
2022-10-07T09:34:08.390Z,1014.48
2022-10-07T09:39:12.525Z,1014.34
2022-10-07T09:44:16.704Z,1014.31
2022-10-07T09:49:24.276Z,1014.27
2022-10-07T09:54:25.052Z,1014.28
2022-10-07T09:59:29.173Z,1014.17
2022-10-07T10:04:33.366Z,1014.25
2022-10-07T10:09:37.493Z,1014.20
2022-10-07T10:14:41.747Z,1014.08
2022-10-07T10:19:45.841Z,1014.03
2022-10-07T10:24:49.963Z,1013.91
2022-10-07T10:29:54.140Z,1013.86
2022-10-07T10:34:58.301Z,1013.76
2022-10-07T10:40:02.486Z,1013.65
2022-10-07T10:45:06.614Z,1013.65
2022-10-07T10:50:10.808Z,1013.56
2022-10-07T10:55:14.961Z,1013.50
2022-10-07T11:00:19.129Z,1013.27
2022-10-07T11:05:23.279Z,1013.36
2022-10-07T11:10:27.414Z,1013.27
2022-10-07T11:15:31.583Z,1013.14
2022-10-07T11:20:33.876Z,1013.08
2022-10-07T11:25:38.016Z,1012.98
2022-10-07T11:30:40.292Z,1012.92
2022-10-07T11:35:44.445Z,1012.90
2022-10-07T11:40:48.629Z,1012.82
2022-10-07T11:45:52.772Z,1012.67
2022-10-07T11:50:56.945Z,1012.62
2022-10-07T11:56:01.093Z,1012.56
2022-10-07T12:01:05.284Z,1012.42
2022-10-07T12:06:09.433Z,1012.23
2022-10-07T12:11:13.603Z,1012.09
2022-10-07T12:16:17.787Z,1011.94
2022-10-07T12:21:21.902Z,1011.98
2022-10-07T12:26:26.014Z,1011.94
2022-10-07T12:31:30.260Z,1011.92
2022-10-07T12:36:34.387Z,1011.94
2022-10-07T12:41:40.326Z,1011.75
2022-10-07T12:46:42.683Z,1011.46
2022-10-07T12:51:46.856Z,1011.45
2022-10-07T12:56:51.054Z,1011.28
2022-10-07T13:01:55.265Z,1011.29
2022-10-07T13:06:59.386Z,1011.16
2022-10-07T13:12:03.488Z,1011.03
2022-10-07T13:17:05.778Z,1011.00
2022-10-07T13:22:09.911Z,1010.89
2022-10-07T13:27:12.169Z,1010.78
2022-10-07T13:32:16.324Z,1010.65
2022-10-07T13:37:20.511Z,1010.72
2022-10-07T13:42:22.772Z,1010.59
2022-10-07T13:47:26.946Z,1010.58
2022-10-07T13:52:31.091Z,1010.48
2022-10-07T13:57:35.256Z,1010.30
2022-10-07T14:02:40.549Z,1010.31
2022-10-07T14:07:43.536Z,1010.18
2022-10-07T14:12:48.091Z,1010.12
2022-10-07T14:17:51.880Z,1010.03
2022-10-07T14:22:56.010Z,1010.00
2022-10-07T14:28:00.253Z,1010.03
2022-10-07T14:33:04.330Z,1009.99
2022-10-07T14:38:08.615Z,1009.86
2022-10-07T14:43:12.687Z,1009.75
2022-10-07T14:48:16.829Z,1009.73
2022-10-07T14:53:20.964Z,1009.74
2022-10-07T14:58:25.133Z,1009.66
2022-10-07T15:08:33.475Z,1009.70
2022-10-07T15:13:37.632Z,1009.55
2022-10-07T15:18:45.134Z,1009.52
2022-10-07T15:23:45.946Z,1009.44
2022-10-07T15:28:50.213Z,1009.41
2022-10-07T15:33:52.387Z,1009.28
2022-10-07T15:38:56.500Z,1009.19
2022-10-07T15:44:00.750Z,1009.16
2022-10-07T15:49:02.969Z,1009.07
2022-10-07T15:54:07.130Z,1009.12
2022-10-07T15:59:11.282Z,1009.06
2022-10-07T16:04:15.432Z,1009.14
2022-10-07T16:09:19.630Z,1009.03
2022-10-07T16:14:23.754Z,1008.96
2022-10-07T16:19:27.911Z,1008.98
2022-10-07T16:24:35.125Z,1008.91
2022-10-07T16:29:36.235Z,1008.93
2022-10-07T16:34:40.372Z,1008.89
2022-10-07T16:39:44.557Z,1008.87
2022-10-07T16:44:50.833Z,1008.80
2022-10-07T16:49:52.896Z,1008.79
2022-10-07T16:54:57.045Z,1008.73
2022-10-07T17:00:01.298Z,1008.68
2022-10-07T17:05:05.390Z,1008.65
2022-10-07T17:10:09.531Z,1008.79
2022-10-07T17:15:13.703Z,1008.82
2022-10-07T17:20:17.834Z,1008.71
2022-10-07T17:25:22.019Z,1008.76
2022-10-07T17:30:26.208Z,1008.76
2022-10-07T17:35:30.437Z,1008.77
2022-10-07T17:40:32.644Z,1008.76
2022-10-07T17:50:39.089Z,1008.71
2022-10-07T17:55:41.353Z,1008.71
2022-10-07T18:00:45.495Z,1008.67
2022-10-07T18:05:49.611Z,1008.68
2022-10-07T18:10:53.804Z,1008.69
2022-10-07T18:15:57.957Z,1008.71
2022-10-07T18:21:02.094Z,1008.69
2022-10-07T18:26:06.288Z,1008.66
2022-10-07T18:31:12.083Z,1008.59
2022-10-07T18:36:14.597Z,1008.58
2022-10-07T18:41:18.759Z,1008.50
2022-10-07T18:46:22.916Z,1008.47
2022-10-07T18:56:31.416Z,1008.42
2022-10-07T19:01:35.650Z,1008.40
2022-10-07T19:06:39.624Z,1008.45
2022-10-07T19:11:43.828Z,1008.40
2022-10-07T19:16:48.013Z,1008.43
2022-10-07T19:21:52.083Z,1008.37
2022-10-07T19:26:56.290Z,1008.35
2022-10-07T19:32:04.397Z,1008.38
2022-10-07T19:37:04.631Z,1008.37
2022-10-07T19:42:08.855Z,1008.33
2022-10-07T19:47:11.036Z,1008.26
2022-10-07T19:52:15.162Z,1008.39
2022-10-07T19:57:19.378Z,1008.35
2022-10-07T20:02:23.593Z,1008.38
2022-10-07T20:07:27.696Z,1008.42
2022-10-07T20:12:31.858Z,1008.35
2022-10-07T20:17:35.988Z,1008.41
2022-10-07T20:22:40.168Z,1008.32
2022-10-07T20:27:44.886Z,1008.40
2022-10-07T20:32:49.066Z,1008.28
2022-10-07T20:37:52.698Z,1008.30
2022-10-07T20:42:56.736Z,1008.30
2022-10-07T20:48:00.911Z,1008.22
2022-10-07T20:53:05.058Z,1008.24
2022-10-07T20:58:09.217Z,1008.26
2022-10-07T21:03:13.383Z,1008.43
2022-10-07T21:08:17.545Z,1008.35
2022-10-07T21:13:21.719Z,1008.32
2022-10-07T21:18:25.886Z,1008.41
2022-10-07T21:23:30.022Z,1008.27
2022-10-07T21:28:34.259Z,1008.19
2022-10-07T21:33:36.463Z,1008.21
2022-10-07T21:38:40.641Z,1008.14
2022-10-07T21:43:44.790Z,1008.09
2022-10-07T21:48:48.980Z,1008.05
2022-10-07T21:53:53.107Z,1007.99
2022-10-07T21:58:57.298Z,1008.02
2022-10-07T22:04:01.516Z,1007.99
2022-10-07T22:09:05.616Z,1007.93
2022-10-07T22:14:12.546Z,1007.92
2022-10-07T22:19:14.978Z,1007.87
2022-10-07T22:24:18.179Z,1007.80
2022-10-07T22:29:22.352Z,1007.84
2022-10-07T22:39:30.649Z,1007.78
2022-10-07T22:44:34.748Z,1007.76
2022-10-07T22:49:47.094Z,1007.69
2022-10-07T22:54:43.065Z,1007.61
2022-10-07T22:59:47.199Z,1007.61
2022-10-07T23:04:51.407Z,1007.51
2022-10-07T23:09:55.543Z,1007.47
2022-10-07T23:14:59.699Z,1007.43
2022-10-07T23:20:03.878Z,1007.37
2022-10-07T23:25:06.113Z,1007.43
2022-10-07T23:30:10.320Z,1007.29
2022-10-07T23:35:12.569Z,1007.18
2022-10-07T23:40:16.733Z,1007.17
2022-10-07T23:45:20.901Z,1007.18
2022-10-07T23:50:25.042Z,1007.18
2022-10-07T23:55:29.245Z,1007.13
